createdAt,value
2017-11-14T00:01:57.929Z,12.40
2017-11-14T00:04:25.051Z,10.77
2017-11-14T00:06:51.438Z,11.27
2017-11-14T00:09:17.824Z,12.17
2017-11-14T00:11:44.203Z,11.63
2017-11-14T00:14:10.581Z,11.20
2017-11-14T00:16:36.998Z,12.30
2017-11-14T00:19:03.413Z,12.67
2017-11-14T00:21:29.809Z,13.03
2017-11-14T00:23:57.101Z,12.90
2017-11-14T00:26:23.514Z,13.30
2017-11-14T00:28:49.942Z,12.83
2017-11-14T00:31:16.343Z,13.13
2017-11-14T00:33:42.745Z,14.10
2017-11-14T00:36:09.118Z,13.13
2017-11-14T00:38:36.259Z,13.30
2017-11-14T00:41:02.653Z,14.03
2017-11-14T00:43:29.083Z,13.53
2017-11-14T00:45:55.488Z,12.47
2017-11-14T00:48:21.879Z,12.83
2017-11-14T00:50:49.127Z,13.50
2017-11-14T00:53:15.527Z,14.67
2017-11-14T00:55:41.905Z,13.77
2017-11-14T00:58:08.337Z,13.37
2017-11-14T01:00:34.730Z,12.17
2017-11-14T01:03:01.135Z,13.20
2017-11-14T01:05:27.588Z,11.97
2017-11-14T01:07:53.994Z,10.80
2017-11-14T01:10:21.117Z,12.20
2017-11-14T01:12:47.489Z,11.57
2017-11-14T01:15:13.938Z,11.27
2017-11-14T01:17:40.320Z,14.30
2017-11-14T01:20:07.456Z,13.13
2017-11-14T01:22:34.591Z,13.00
2017-11-14T01:25:00.975Z,12.73
2017-11-14T01:27:27.370Z,14.33
2017-11-14T01:29:53.764Z,13.57
2017-11-14T01:32:20.168Z,12.10
2017-11-14T01:34:46.621Z,12.63
2017-11-14T01:37:13.038Z,13.70
2017-11-14T01:39:39.436Z,14.03
2017-11-14T01:42:05.850Z,14.43
2017-11-14T01:44:32.952Z,12.50
2017-11-14T01:46:59.373Z,13.00
2017-11-14T01:49:26.502Z,13.17
2017-11-14T01:51:52.880Z,12.87
2017-11-14T01:54:19.289Z,14.50
2017-11-14T01:56:46.419Z,13.43
2017-11-14T01:59:13.548Z,14.90
2017-11-14T02:01:39.943Z,13.70
2017-11-14T02:04:06.386Z,14.40
2017-11-14T02:06:32.824Z,13.93
2017-11-14T02:08:59.268Z,13.67
2017-11-14T02:11:25.690Z,15.00
2017-11-14T02:13:52.099Z,13.40
2017-11-14T02:16:18.515Z,16.00
2017-11-14T02:18:44.961Z,14.83
2017-11-14T02:21:11.390Z,13.07
2017-11-14T02:23:37.817Z,14.03
2017-11-14T02:26:04.246Z,14.40
2017-11-14T02:28:30.665Z,14.43
2017-11-14T02:30:57.858Z,13.47
2017-11-14T02:33:24.290Z,14.73
2017-11-14T02:35:50.849Z,12.80
2017-11-14T02:38:17.291Z,12.90
2017-11-14T02:40:43.735Z,13.60
2017-11-14T02:43:10.918Z,13.77
2017-11-14T02:45:37.372Z,14.30
2017-11-14T02:48:03.811Z,13.80
2017-11-14T02:50:30.237Z,13.47
2017-11-14T02:52:56.679Z,15.87
2017-11-14T02:55:23.135Z,14.93
2017-11-14T02:57:49.528Z,16.40
2017-11-14T03:00:15.980Z,15.33
2017-11-14T03:02:42.376Z,16.53
2017-11-14T03:05:08.795Z,14.50
2017-11-14T03:07:35.963Z,14.73
2017-11-14T03:10:02.397Z,14.73
2017-11-14T03:12:28.844Z,15.40
2017-11-14T03:14:55.247Z,17.40
2017-11-14T03:17:22.429Z,17.00
2017-11-14T03:19:48.904Z,16.37
2017-11-14T03:22:15.312Z,15.97
2017-11-14T03:24:41.732Z,16.77
2017-11-14T03:27:08.117Z,15.60
2017-11-14T03:29:35.271Z,16.57
2017-11-14T03:32:02.456Z,16.20
2017-11-14T03:34:28.871Z,15.27
2017-11-14T03:36:55.325Z,16.83
2017-11-14T03:39:21.743Z,14.10
2017-11-14T03:41:48.200Z,15.27
2017-11-14T03:44:14.634Z,14.37
2017-11-14T03:46:41.037Z,15.03
2017-11-14T03:49:07.474Z,14.20
2017-11-14T03:51:33.896Z,15.33
2017-11-14T03:54:01.052Z,16.77
2017-11-14T03:56:27.474Z,14.20
2017-11-14T03:58:54.619Z,15.80
2017-11-14T04:01:21.744Z,15.17
2017-11-14T04:03:48.160Z,14.10
2017-11-14T04:06:14.573Z,16.43
2017-11-14T04:08:40.978Z,17.10
2017-11-14T04:11:08.169Z,16.60
2017-11-14T04:13:34.615Z,14.87
2017-11-14T04:16:01.026Z,15.07
2017-11-14T04:18:27.416Z,15.20
2017-11-14T04:20:54.537Z,14.50
2017-11-14T04:23:20.943Z,16.93
2017-11-14T04:25:47.329Z,16.50
2017-11-14T04:28:13.777Z,16.47
2017-11-14T04:30:40.167Z,16.33
2017-11-14T04:33:06.561Z,15.80
2017-11-14T04:35:33.685Z,18.53
2017-11-14T04:38:00.085Z,16.70
2017-11-14T04:40:26.483Z,17.90
2017-11-14T04:42:52.929Z,16.97
2017-11-14T04:45:19.342Z,18.13
2017-11-14T04:47:45.767Z,17.30
2017-11-14T04:50:12.184Z,17.17
2017-11-14T04:52:38.639Z,16.17
2017-11-14T04:55:05.100Z,16.90
2017-11-14T04:57:31.483Z,17.87
2017-11-14T04:59:57.897Z,17.37
2017-11-14T05:02:25.020Z,20.97
2017-11-14T05:04:51.421Z,17.90
2017-11-14T05:07:17.826Z,15.73
2017-11-14T05:09:44.221Z,16.57
2017-11-14T05:12:12.105Z,16.03
2017-11-14T05:14:39.244Z,15.37
2017-11-14T05:17:07.105Z,16.73
2017-11-14T05:19:33.501Z,16.17
2017-11-14T05:21:59.888Z,14.60
2017-11-14T05:24:27.020Z,17.50
2017-11-14T05:26:53.409Z,14.03
2017-11-14T05:29:19.815Z,16.47
2017-11-14T05:31:46.247Z,14.63
2017-11-14T05:34:12.680Z,16.70
2017-11-14T05:36:39.083Z,14.63
2017-11-14T05:39:06.241Z,15.50
2017-11-14T05:41:32.627Z,14.83
2017-11-14T05:43:59.015Z,14.30
2017-11-14T05:46:26.181Z,16.33
2017-11-14T05:48:52.583Z,16.20
2017-11-14T05:51:19.726Z,17.90
2017-11-14T05:53:46.902Z,14.37
2017-11-14T05:56:13.349Z,15.73
2017-11-14T05:58:39.748Z,16.13
2017-11-14T06:01:06.141Z,12.90
2017-11-14T06:03:32.597Z,15.33
2017-11-14T06:05:58.980Z,12.97
2017-11-14T06:08:25.440Z,15.53
2017-11-14T06:10:51.964Z,14.50
2017-11-14T06:13:18.381Z,17.07
2017-11-14T06:15:44.813Z,16.70
2017-11-14T06:18:11.204Z,15.37
2017-11-14T06:20:38.373Z,15.37
2017-11-14T06:23:04.767Z,16.07
2017-11-14T06:25:31.157Z,16.70
2017-11-14T06:27:57.536Z,14.80
2017-11-14T06:30:23.969Z,15.50
2017-11-14T06:32:50.404Z,15.67
2017-11-14T06:35:16.817Z,15.70
2017-11-14T06:37:43.235Z,15.70
2017-11-14T06:40:09.679Z,14.40
2017-11-14T06:42:36.122Z,15.00
2017-11-14T06:45:04.052Z,17.17
2017-11-14T06:47:30.445Z,16.10
2017-11-14T06:49:57.640Z,16.13
2017-11-14T06:52:24.037Z,15.63
2017-11-14T06:54:51.201Z,16.07
2017-11-14T06:57:18.335Z,16.73
2017-11-14T06:59:45.529Z,18.03
2017-11-14T07:02:11.958Z,14.80
2017-11-14T07:04:38.379Z,16.57
2017-11-14T07:07:04.808Z,14.90
2017-11-14T07:09:31.220Z,15.50
2017-11-14T07:11:58.361Z,15.83
2017-11-14T07:14:25.568Z,15.20
2017-11-14T07:16:51.999Z,15.97
2017-11-14T07:19:18.373Z,16.70
2017-11-14T07:21:45.534Z,15.40
2017-11-14T07:24:12.688Z,13.33
2017-11-14T07:26:39.823Z,16.03
2017-11-14T07:29:06.256Z,15.50
2017-11-14T07:31:32.664Z,15.10
2017-11-14T07:33:59.072Z,13.47
2017-11-14T07:36:25.454Z,13.70
2017-11-14T07:38:52.584Z,15.23
2017-11-14T07:41:18.980Z,13.60
2017-11-14T07:43:45.366Z,14.40
2017-11-14T07:46:11.768Z,14.87
2017-11-14T07:48:38.162Z,13.97
2017-11-14T07:51:04.548Z,15.07
2017-11-14T07:53:30.941Z,15.83
2017-11-14T07:55:57.327Z,13.07
2017-11-14T07:58:24.458Z,13.93
2017-11-14T08:00:50.844Z,11.93
2017-11-14T08:03:17.300Z,13.33
2017-11-14T08:05:43.765Z,13.93
2017-11-14T08:08:10.934Z,12.57
2017-11-14T08:10:38.112Z,11.00
2017-11-14T08:13:04.523Z,12.03
2017-11-14T08:15:30.980Z,10.97
2017-11-14T08:17:58.089Z,12.63
2017-11-14T08:20:25.224Z,11.23
2017-11-14T08:22:51.599Z,11.73
2017-11-14T08:25:23.999Z,12.10
2017-11-14T08:27:50.386Z,11.57
2017-11-14T08:30:16.773Z,11.50
2017-11-14T08:32:43.253Z,11.23
2017-11-14T08:35:09.688Z,11.80
2017-11-14T08:37:36.876Z,11.17
2017-11-14T08:40:03.299Z,13.00
2017-11-14T08:42:29.723Z,11.83
2017-11-14T08:44:56.129Z,10.83
2017-11-14T08:47:23.287Z,11.60
2017-11-14T08:49:50.433Z,10.30
2017-11-14T08:52:17.607Z,10.17
2017-11-14T08:54:44.008Z,10.53
2017-11-14T08:57:10.437Z,10.17
2017-11-14T08:59:37.584Z,9.47
2017-11-14T09:02:05.065Z,10.23
2017-11-14T09:04:31.490Z,9.73
2017-11-14T09:06:58.668Z,11.00
2017-11-14T09:09:25.131Z,8.27
2017-11-14T09:11:53.076Z,9.87
2017-11-14T09:14:19.593Z,9.00
2017-11-14T09:16:46.889Z,8.30
2017-11-14T09:19:14.849Z,8.60
2017-11-14T09:21:42.074Z,9.17
2017-11-14T09:24:08.510Z,8.47
2017-11-14T09:26:34.977Z,8.60
2017-11-14T09:29:01.416Z,7.73
2017-11-14T09:31:29.342Z,8.27
2017-11-14T09:33:55.740Z,6.70
2017-11-14T09:36:22.514Z,8.33
2017-11-14T09:38:48.984Z,7.00
2017-11-14T09:41:15.445Z,4.83
2017-11-14T09:43:42.618Z,6.87
2017-11-14T09:46:09.820Z,5.83
2017-11-14T09:48:36.264Z,7.07
2017-11-14T09:51:02.720Z,6.43
2017-11-14T09:53:29.918Z,6.73
2017-11-14T09:55:56.370Z,7.30
2017-11-14T09:58:22.819Z,8.90
2017-11-14T10:00:49.240Z,6.07
2017-11-14T10:03:15.660Z,7.00
2017-11-14T10:05:42.143Z,5.57
2017-11-14T10:08:08.620Z,6.50
2017-11-14T10:10:35.046Z,4.60
2017-11-14T10:13:01.486Z,6.30
2017-11-14T10:15:27.932Z,5.90
2017-11-14T10:17:54.383Z,5.53
2017-11-14T10:20:22.392Z,5.00
2017-11-14T10:22:48.861Z,4.53
2017-11-14T10:25:15.294Z,3.50
2017-11-14T10:27:41.729Z,4.60
2017-11-14T10:30:08.176Z,4.10
2017-11-14T10:32:34.651Z,3.70
2017-11-14T10:35:01.833Z,4.30
2017-11-14T10:37:28.276Z,3.03
2017-11-14T10:39:56.243Z,3.37
2017-11-14T10:42:22.702Z,4.67
2017-11-14T10:44:49.867Z,3.20
2017-11-14T10:47:16.293Z,4.00
2017-11-14T10:49:43.485Z,2.90
2017-11-14T10:52:09.953Z,3.10
2017-11-14T10:54:36.414Z,3.27
2017-11-14T10:57:02.884Z,5.03
2017-11-14T10:59:29.336Z,2.40
2017-11-14T11:01:55.852Z,2.40
2017-11-14T11:04:22.299Z,4.33
2017-11-14T11:06:48.724Z,2.17
2017-11-14T11:09:15.196Z,3.63
2017-11-14T11:11:41.654Z,13.53
2017-11-14T11:14:08.822Z,4.10
2017-11-14T11:16:35.290Z,2.90
2017-11-14T11:19:01.743Z,12.40
2017-11-14T11:21:28.182Z,6.70
2017-11-14T11:23:55.397Z,5.23
2017-11-14T11:26:21.839Z,3.30
2017-11-14T11:28:48.288Z,4.03
2017-11-14T11:31:14.837Z,4.00
2017-11-14T11:33:41.273Z,3.00
2017-11-14T11:36:07.955Z,3.27
2017-11-14T11:38:34.394Z,2.57
2017-11-14T11:41:00.843Z,2.53
2017-11-14T11:43:27.288Z,4.30
2017-11-14T11:45:53.731Z,2.20
2017-11-14T11:48:20.239Z,2.97
2017-11-14T11:50:46.723Z,2.70
2017-11-14T11:53:13.905Z,3.03
2017-11-14T11:55:40.533Z,2.60
2017-11-14T11:58:07.745Z,9.40
2017-11-14T12:00:34.963Z,2.83
2017-11-14T12:03:01.412Z,3.13
2017-11-14T12:05:27.866Z,3.10
2017-11-14T12:07:55.092Z,2.70
2017-11-14T12:10:21.601Z,3.00
2017-11-14T12:12:48.053Z,2.30
2017-11-14T12:15:14.517Z,3.17
2017-11-14T12:17:42.445Z,2.80
2017-11-14T12:20:08.890Z,2.80
2017-11-14T12:22:35.353Z,3.10
2017-11-14T12:25:03.277Z,2.90
2017-11-14T12:27:29.695Z,3.43
2017-11-14T12:29:56.134Z,3.07
2017-11-14T12:32:22.588Z,3.33
2017-11-14T12:34:49.059Z,2.90
2017-11-14T12:37:15.581Z,3.07
2017-11-14T12:39:42.021Z,4.97
2017-11-14T12:42:08.472Z,3.10
2017-11-14T12:44:35.636Z,2.10
2017-11-14T12:47:02.768Z,2.37
2017-11-14T12:49:29.936Z,2.10
2017-11-14T12:51:57.116Z,2.33
2017-11-14T12:54:23.527Z,2.47
2017-11-14T12:56:50.717Z,2.70
2017-11-14T12:59:17.133Z,2.00
2017-11-14T13:01:44.018Z,2.60
2017-11-14T13:04:11.399Z,1.90
2017-11-14T13:06:39.370Z,2.63
2017-11-14T13:09:06.530Z,2.10
2017-11-14T13:11:32.984Z,2.60
2017-11-14T13:13:59.441Z,2.60
2017-11-14T13:16:25.837Z,2.37
2017-11-14T13:18:52.232Z,2.17
2017-11-14T13:21:19.405Z,2.10
2017-11-14T13:23:46.580Z,2.20
2017-11-14T13:26:13.006Z,2.50
2017-11-14T13:28:39.508Z,2.90
2017-11-14T13:31:06.686Z,2.93
2017-11-14T13:33:33.156Z,2.73
2017-11-14T13:35:59.581Z,2.20
2017-11-14T13:38:26.028Z,5.37
2017-11-14T13:40:52.457Z,1.77
2017-11-14T13:43:18.852Z,2.17
2017-11-14T13:45:45.236Z,1.97
2017-11-14T13:48:13.129Z,2.00
2017-11-14T13:50:40.336Z,2.50
2017-11-14T13:53:06.725Z,2.40
2017-11-14T13:55:33.727Z,3.13
2017-11-14T13:58:00.174Z,2.50
2017-11-14T14:00:26.591Z,3.50
2017-11-14T14:02:52.981Z,2.67
2017-11-14T14:05:19.561Z,3.07
2017-11-14T14:07:46.003Z,3.53
2017-11-14T14:10:13.895Z,3.50
2017-11-14T14:12:41.019Z,3.90
2017-11-14T14:15:07.447Z,3.77
2017-11-14T14:17:33.848Z,3.30
2017-11-14T14:20:01.061Z,3.90
2017-11-14T14:22:28.207Z,3.30
2017-11-14T14:24:55.330Z,3.63
2017-11-14T14:27:23.273Z,3.00
2017-11-14T14:29:49.639Z,3.50
2017-11-14T14:32:16.018Z,2.90
2017-11-14T14:34:42.412Z,3.37
2017-11-14T14:37:08.785Z,3.73
2017-11-14T14:39:36.046Z,3.70
2017-11-14T14:42:02.531Z,3.20
2017-11-14T14:44:29.704Z,3.47
2017-11-14T14:46:56.114Z,3.23
2017-11-14T14:49:23.229Z,4.53
2017-11-14T14:51:51.239Z,3.23
2017-11-14T14:54:17.629Z,3.53
2017-11-14T14:56:44.130Z,4.20
2017-11-14T14:59:10.527Z,3.63
2017-11-14T15:01:37.665Z,3.37
2017-11-14T15:04:04.069Z,8.70
2017-11-14T15:06:31.309Z,4.90
2017-11-14T15:08:57.819Z,4.30
2017-11-14T15:11:24.260Z,5.33
2017-11-14T15:13:50.682Z,4.30
2017-11-14T15:16:17.147Z,5.10
2017-11-14T15:18:43.580Z,5.80
2017-11-14T15:21:10.009Z,9.20
2017-11-14T15:23:37.144Z,7.90
2017-11-14T15:26:03.578Z,7.00
2017-11-14T15:28:30.008Z,8.97
2017-11-14T15:30:56.488Z,7.00
2017-11-14T15:33:23.676Z,7.23
2017-11-14T15:35:50.124Z,6.50
2017-11-14T15:38:16.553Z,7.47
2017-11-14T15:40:42.998Z,5.73
2017-11-14T15:43:09.466Z,5.83
2017-11-14T15:45:35.969Z,14.10
2017-11-14T15:48:02.406Z,31.20
2017-11-14T15:50:28.846Z,19.17
2017-11-14T15:52:55.329Z,18.90
2017-11-14T15:55:22.529Z,20.20
2017-11-14T15:57:48.970Z,21.20
2017-11-14T16:00:15.579Z,14.47
2017-11-14T16:02:42.152Z,43.10
2017-11-14T16:05:08.593Z,16.93
2017-11-14T16:07:35.029Z,17.57
2017-11-14T16:10:01.963Z,10.37
2017-11-14T16:12:28.409Z,8.90
2017-11-14T16:14:54.878Z,7.80
2017-11-14T16:17:21.336Z,40.87
2017-11-14T16:19:47.791Z,40.83
2017-11-14T16:22:14.221Z,25.27
2017-11-14T16:24:40.689Z,27.90
2017-11-14T16:27:07.926Z,12.23
2017-11-14T16:29:34.387Z,12.40
2017-11-14T16:32:01.580Z,9.50
2017-11-14T16:34:28.038Z,8.77
2017-11-14T16:36:54.472Z,8.40
2017-11-14T16:39:20.950Z,9.63
2017-11-14T16:41:47.426Z,6.87
2017-11-14T16:44:13.929Z,7.63
2017-11-14T16:46:40.375Z,10.00
2017-11-14T16:49:06.839Z,12.90
2017-11-14T16:51:33.289Z,8.10
2017-11-14T16:54:00.493Z,7.77
2017-11-14T16:56:26.953Z,7.13
2017-11-14T16:58:53.493Z,8.70
2017-11-14T17:01:19.925Z,9.70
2017-11-14T17:03:46.377Z,14.33
2017-11-14T17:06:12.916Z,33.87
2017-11-14T17:08:40.141Z,29.00
2017-11-14T17:11:06.657Z,15.23
2017-11-14T17:13:33.126Z,14.50
2017-11-14T17:16:00.330Z,17.23
2017-11-14T17:18:27.783Z,19.43
2017-11-14T17:20:54.227Z,20.10
2017-11-14T17:23:20.667Z,13.63
2017-11-14T17:25:47.080Z,14.03
2017-11-14T17:28:13.531Z,13.87
2017-11-14T17:30:40.759Z,16.83
2017-11-14T17:33:07.170Z,14.73
2017-11-14T17:35:34.289Z,12.17
2017-11-14T17:38:00.693Z,11.93
2017-11-14T17:40:27.085Z,10.10
2017-11-14T17:42:54.251Z,9.93
2017-11-14T17:45:20.672Z,10.80
2017-11-14T17:47:47.789Z,12.27
2017-11-14T17:50:14.184Z,11.83
2017-11-14T17:52:40.611Z,11.77
2017-11-14T17:55:07.118Z,10.70
2017-11-14T17:57:33.597Z,11.90
2017-11-14T18:00:00.044Z,11.50
2017-11-14T18:02:26.457Z,15.67
2017-11-14T18:04:52.857Z,15.60
2017-11-14T18:07:20.014Z,13.50
2017-11-14T18:09:46.452Z,14.77
2017-11-14T18:12:12.856Z,13.50
2017-11-14T18:14:40.032Z,14.30
2017-11-14T18:17:06.434Z,16.50
2017-11-14T18:19:33.664Z,21.17
2017-11-14T18:22:00.790Z,22.70
2017-11-14T18:24:27.191Z,13.20
2017-11-14T18:26:55.190Z,21.90
2017-11-14T18:29:23.982Z,18.83
2017-11-14T18:31:50.385Z,11.40
2017-11-14T18:34:16.884Z,11.63
2017-11-14T18:36:43.266Z,16.50
2017-11-14T18:39:09.661Z,27.47
2017-11-14T18:41:37.113Z,18.50
2017-11-14T18:44:03.524Z,16.40
2017-11-14T18:46:30.932Z,32.53
2017-11-14T18:48:57.557Z,16.80
2017-11-14T18:51:23.984Z,18.60
2017-11-14T18:53:51.134Z,16.00
2017-11-14T18:56:18.264Z,15.00
2017-11-14T18:58:44.686Z,15.60
2017-11-14T19:01:11.103Z,16.37
2017-11-14T19:03:37.489Z,16.90
2017-11-14T19:06:04.649Z,16.73
2017-11-14T19:08:31.082Z,16.90
2017-11-14T19:10:57.502Z,16.60
2017-11-14T19:13:23.942Z,15.63
2017-11-14T19:15:50.384Z,18.33
2017-11-14T19:18:16.837Z,18.40
2017-11-14T19:20:43.293Z,26.00
2017-11-14T19:23:09.676Z,21.67
2017-11-14T19:25:36.090Z,20.10
2017-11-14T19:28:03.241Z,17.63
2017-11-14T19:30:29.644Z,17.43
2017-11-14T19:32:56.025Z,18.50
2017-11-14T19:35:22.416Z,19.33
2017-11-14T19:37:48.820Z,18.57
2017-11-14T19:40:15.192Z,18.33
2017-11-14T19:42:42.349Z,18.90
2017-11-14T19:45:09.529Z,17.90
2017-11-14T19:47:35.933Z,32.63
2017-11-14T19:50:02.395Z,22.90
2017-11-14T19:52:28.839Z,22.83
2017-11-14T19:54:55.294Z,42.83
2017-11-14T19:57:21.711Z,20.47
2017-11-14T19:59:48.110Z,20.90
2017-11-14T20:02:14.554Z,28.47
2017-11-14T20:04:40.975Z,21.20
2017-11-14T20:07:08.503Z,21.80
2017-11-14T20:09:35.686Z,23.60
2017-11-14T20:12:02.163Z,28.30
2017-11-14T20:14:28.600Z,25.00
2017-11-14T20:16:55.101Z,27.90
2017-11-14T20:19:21.545Z,24.83
2017-11-14T20:21:48.005Z,25.80
2017-11-14T20:24:14.412Z,24.73
2017-11-14T20:26:40.833Z,18.97
2017-11-14T20:29:07.240Z,20.07
2017-11-14T20:31:33.655Z,18.07
2017-11-14T20:34:00.804Z,19.77
2017-11-14T20:36:27.940Z,20.83
2017-11-14T20:38:54.391Z,18.90
2017-11-14T20:41:20.768Z,23.43
2017-11-14T20:43:47.283Z,20.73
2017-11-14T20:46:13.684Z,21.43
2017-11-14T20:48:40.837Z,23.40
2017-11-14T20:51:07.978Z,27.80
2017-11-14T20:53:35.148Z,20.10
2017-11-14T20:56:02.315Z,20.47
2017-11-14T20:58:28.743Z,21.47
2017-11-14T21:00:55.239Z,19.93
2017-11-14T21:03:21.730Z,27.73
2017-11-14T21:05:48.120Z,29.43
2017-11-14T21:08:15.293Z,29.90
2017-11-14T21:10:41.729Z,32.40
2017-11-14T21:13:08.167Z,33.30
2017-11-14T21:15:34.565Z,29.77
2017-11-14T21:18:01.711Z,26.67
2017-11-14T21:20:28.138Z,24.57
2017-11-14T21:22:55.308Z,22.13
2017-11-14T21:25:22.441Z,21.70
2017-11-14T21:27:48.837Z,23.50
2017-11-14T21:30:15.223Z,30.07
2017-11-14T21:32:42.369Z,24.70
2017-11-14T21:35:09.498Z,23.97
2017-11-14T21:37:36.632Z,22.60
2017-11-14T21:40:03.103Z,21.70
2017-11-14T21:42:29.578Z,24.70
2017-11-14T21:44:55.974Z,18.97
2017-11-14T21:47:23.105Z,20.70
2017-11-14T21:49:50.262Z,20.03
2017-11-14T21:52:17.406Z,21.40
2017-11-14T21:54:44.552Z,21.37
2017-11-14T21:57:10.956Z,22.27
2017-11-14T21:59:37.356Z,21.23
2017-11-14T22:02:03.756Z,19.95
2017-11-14T22:04:30.915Z,20.97
2017-11-14T22:06:58.054Z,20.63
2017-11-14T22:09:25.168Z,22.33
2017-11-14T22:11:51.552Z,22.17
2017-11-14T22:14:17.951Z,20.98
2017-11-14T22:16:44.516Z,23.25
2017-11-14T22:19:10.907Z,21.87
2017-11-14T22:21:37.326Z,21.58
2017-11-14T22:24:03.733Z,20.67
2017-11-14T22:26:30.170Z,26.55
2017-11-14T22:28:56.634Z,24.60
2017-11-14T22:31:23.130Z,27.27
2017-11-14T22:33:49.703Z,24.67
2017-11-14T22:36:16.117Z,26.42
2017-11-14T22:38:42.683Z,26.75
2017-11-14T22:41:09.108Z,24.20
2017-11-14T22:43:35.540Z,22.67
2017-11-14T22:46:02.024Z,22.00
2017-11-14T22:48:28.426Z,22.53
2017-11-14T22:50:56.299Z,28.90
2017-11-14T22:53:22.680Z,24.77
2017-11-14T22:55:49.125Z,26.40
2017-11-14T22:58:15.567Z,24.10
2017-11-14T23:00:41.976Z,23.13
2017-11-14T23:03:08.397Z,28.60
2017-11-14T23:05:34.783Z,34.47
2017-11-14T23:08:01.178Z,29.90
2017-11-14T23:10:27.584Z,26.60
2017-11-14T23:12:53.981Z,24.40
2017-11-14T23:15:21.131Z,23.80
2017-11-14T23:17:47.524Z,22.27
2017-11-14T23:20:13.967Z,24.60
2017-11-14T23:22:40.368Z,23.40
2017-11-14T23:25:06.768Z,23.23
2017-11-14T23:27:33.911Z,25.13
2017-11-14T23:30:00.307Z,23.77
2017-11-14T23:32:26.684Z,24.30
2017-11-14T23:34:53.831Z,24.73
2017-11-14T23:37:20.965Z,23.67
2017-11-14T23:39:48.850Z,22.50
2017-11-14T23:42:16.017Z,21.90
2017-11-14T23:44:42.456Z,22.00
2017-11-14T23:47:08.888Z,21.60
2017-11-14T23:49:35.387Z,21.23
2017-11-14T23:52:01.816Z,23.07
2017-11-14T23:54:28.193Z,23.77
2017-11-14T23:56:54.566Z,23.27
2017-11-14T23:59:22.449Z,23.70
